sensor_id;sensor_type;location;lat;lon;timestamp;temperature;humidity
15483;DHT22;7843;50.330;7.312;2023-11-22T00:02:19;5.70;99.90
15483;DHT22;7843;50.330;7.312;2023-11-22T00:04:46;5.70;99.90
15483;DHT22;7843;50.330;7.312;2023-11-22T00:07:13;5.70;99.90
15483;DHT22;7843;50.330;7.312;2023-11-22T00:09:40;5.60;99.90
15483;DHT22;7843;50.330;7.312;2023-11-22T00:12:08;5.60;99.90
15483;DHT22;7843;50.330;7.312;2023-11-22T00:14:36;5.60;99.90
15483;DHT22;7843;50.330;7.312;2023-11-22T00:17:02;5.50;99.90
15483;DHT22;7843;50.330;7.312;2023-11-22T00:19:30;5.50;99.90
15483;DHT22;7843;50.330;7.312;2023-11-22T00:21:57;5.50;99.90
15483;DHT22;7843;50.330;7.312;2023-11-22T00:24:23;5.50;99.90
15483;DHT22;7843;50.330;7.312;2023-11-22T00:26:50;5.50;99.90
15483;DHT22;7843;50.330;7.312;2023-11-22T00:29:17;5.50;99.90
15483;DHT22;7843;50.330;7.312;2023-11-22T00:31:43;5.40;99.90
15483;DHT22;7843;50.330;7.312;2023-11-22T00:34:11;5.30;99.90
15483;DHT22;7843;50.330;7.312;2023-11-22T00:36:38;5.30;99.90
15483;DHT22;7843;50.330;7.312;2023-11-22T00:39:04;5.30;99.90
15483;DHT22;7843;50.330;7.312;2023-11-22T00:41:32;5.30;99.90
15483;DHT22;7843;50.330;7.312;2023-11-22T00:43:58;5.30;99.90
15483;DHT22;7843;50.330;7.312;2023-11-22T00:46:25;5.30;99.90
15483;DHT22;7843;50.330;7.312;2023-11-22T00:48:52;5.40;99.90
15483;DHT22;7843;50.330;7.312;2023-11-22T00:51:19;5.40;99.90
15483;DHT22;7843;50.330;7.312;2023-11-22T00:53:46;5.40;99.90
15483;DHT22;7843;50.330;7.312;2023-11-22T00:56:13;5.40;99.90
15483;DHT22;7843;50.330;7.312;2023-11-22T00:58:39;5.40;99.90
15483;DHT22;7843;50.330;7.312;2023-11-22T01:01:07;5.40;99.90
15483;DHT22;7843;50.330;7.312;2023-11-22T01:03:34;5.40;99.90
15483;DHT22;7843;50.330;7.312;2023-11-22T01:06:01;5.40;99.90
15483;DHT22;7843;50.330;7.312;2023-11-22T01:08:28;5.40;99.90
15483;DHT22;7843;50.330;7.312;2023-11-22T01:10:55;5.40;99.90
15483;DHT22;7843;50.330;7.312;2023-11-22T01:13:24;5.40;99.90
15483;DHT22;7843;50.330;7.312;2023-11-22T01:15:50;5.40;99.90
15483;DHT22;7843;50.330;7.312;2023-11-22T01:18:17;5.40;99.90
15483;DHT22;7843;50.330;7.312;2023-11-22T01:20:44;5.40;99.90
15483;DHT22;7843;50.330;7.312;2023-11-22T01:23:11;5.30;99.90
15483;DHT22;7843;50.330;7.312;2023-11-22T01:25:38;5.30;99.90
15483;DHT22;7843;50.330;7.312;2023-11-22T01:28:05;5.30;99.90
15483;DHT22;7843;50.330;7.312;2023-11-22T01:30:33;5.30;99.90
15483;DHT22;7843;50.330;7.312;2023-11-22T01:33:00;5.20;99.90
15483;DHT22;7843;50.330;7.312;2023-11-22T01:35:26;5.20;99.90
15483;DHT22;7843;50.330;7.312;2023-11-22T01:37:53;5.20;99.90
15483;DHT22;7843;50.330;7.312;2023-11-22T01:40:20;5.10;99.90
15483;DHT22;7843;50.330;7.312;2023-11-22T01:42:47;5.10;99.90
15483;DHT22;7843;50.330;7.312;2023-11-22T01:45:13;5.00;99.90
15483;DHT22;7843;50.330;7.312;2023-11-22T01:47:40;4.90;99.90
15483;DHT22;7843;50.330;7.312;2023-11-22T01:50:08;4.90;99.90
15483;DHT22;7843;50.330;7.312;2023-11-22T01:52:35;4.90;99.90
15483;DHT22;7843;50.330;7.312;2023-11-22T01:55:03;4.90;99.90
15483;DHT22;7843;50.330;7.312;2023-11-22T01:57:33;4.90;99.90
15483;DHT22;7843;50.330;7.312;2023-11-22T02:00:02;4.80;99.90
15483;DHT22;7843;50.330;7.312;2023-11-22T02:02:30;4.70;99.90
15483;DHT22;7843;50.330;7.312;2023-11-22T02:04:57;4.70;99.90
15483;DHT22;7843;50.330;7.312;2023-11-22T02:07:26;4.60;99.90
15483;DHT22;7843;50.330;7.312;2023-11-22T02:09:53;4.60;99.90
15483;DHT22;7843;50.330;7.312;2023-11-22T02:12:20;4.60;99.90
15483;DHT22;7843;50.330;7.312;2023-11-22T02:14:47;4.60;99.90
15483;DHT22;7843;50.330;7.312;2023-11-22T02:17:14;4.60;99.90
15483;DHT22;7843;50.330;7.312;2023-11-22T02:19:43;4.60;99.90
15483;DHT22;7843;50.330;7.312;2023-11-22T02:22:10;4.60;99.90
15483;DHT22;7843;50.330;7.312;2023-11-22T02:24:37;4.70;99.90
15483;DHT22;7843;50.330;7.312;2023-11-22T02:27:04;4.70;99.90
15483;DHT22;7843;50.330;7.312;2023-11-22T02:29:31;4.70;99.90
15483;DHT22;7843;50.330;7.312;2023-11-22T02:31:57;4.70;99.90
15483;DHT22;7843;50.330;7.312;2023-11-22T02:34:24;4.70;99.90
15483;DHT22;7843;50.330;7.312;2023-11-22T02:36:51;4.80;99.90
15483;DHT22;7843;50.330;7.312;2023-11-22T02:39:21;4.80;99.90
15483;DHT22;7843;50.330;7.312;2023-11-22T02:41:51;4.80;99.90
15483;DHT22;7843;50.330;7.312;2023-11-22T02:44:17;4.90;99.90
15483;DHT22;7843;50.330;7.312;2023-11-22T02:46:44;4.90;99.90
15483;DHT22;7843;50.330;7.312;2023-11-22T02:49:11;4.90;99.90
15483;DHT22;7843;50.330;7.312;2023-11-22T02:51:37;4.90;99.90
15483;DHT22;7843;50.330;7.312;2023-11-22T02:54:04;5.00;99.90
15483;DHT22;7843;50.330;7.312;2023-11-22T02:56:32;5.00;99.90
15483;DHT22;7843;50.330;7.312;2023-11-22T02:58:58;5.00;99.90
15483;DHT22;7843;50.330;7.312;2023-11-22T03:01:25;5.00;99.90
15483;DHT22;7843;50.330;7.312;2023-11-22T03:03:52;5.00;99.90
15483;DHT22;7843;50.330;7.312;2023-11-22T03:06:19;5.00;99.90
15483;DHT22;7843;50.330;7.312;2023-11-22T03:08:46;5.00;99.90
15483;DHT22;7843;50.330;7.312;2023-11-22T03:11:13;5.00;99.90
15483;DHT22;7843;50.330;7.312;2023-11-22T03:13:40;5.10;99.90
15483;DHT22;7843;50.330;7.312;2023-11-22T03:16:07;5.00;99.90
15483;DHT22;7843;50.330;7.312;2023-11-22T03:18:35;5.00;99.90
15483;DHT22;7843;50.330;7.312;2023-11-22T03:21:02;5.00;99.90
15483;DHT22;7843;50.330;7.312;2023-11-22T03:23:29;5.10;99.90
15483;DHT22;7843;50.330;7.312;2023-11-22T03:25:56;5.00;99.90
15483;DHT22;7843;50.330;7.312;2023-11-22T03:28:22;5.10;99.90
15483;DHT22;7843;50.330;7.312;2023-11-22T03:30:49;5.00;99.90
15483;DHT22;7843;50.330;7.312;2023-11-22T03:33:16;5.00;99.90
15483;DHT22;7843;50.330;7.312;2023-11-22T03:35:43;5.00;99.90
15483;DHT22;7843;50.330;7.312;2023-11-22T03:38:10;5.10;99.90
15483;DHT22;7843;50.330;7.312;2023-11-22T03:40:36;5.10;99.90
15483;DHT22;7843;50.330;7.312;2023-11-22T03:43:03;5.10;99.90
15483;DHT22;7843;50.330;7.312;2023-11-22T03:45:30;5.00;99.90
15483;DHT22;7843;50.330;7.312;2023-11-22T03:47:56;5.10;99.90
15483;DHT22;7843;50.330;7.312;2023-11-22T03:50:23;5.00;99.90
15483;DHT22;7843;50.330;7.312;2023-11-22T03:52:50;5.00;99.90
15483;DHT22;7843;50.330;7.312;2023-11-22T03:55:17;5.00;99.90
15483;DHT22;7843;50.330;7.312;2023-11-22T03:57:43;5.00;99.90
15483;DHT22;7843;50.330;7.312;2023-11-22T04:00:11;5.00;99.90
15483;DHT22;7843;50.330;7.312;2023-11-22T04:02:38;5.00;99.90
15483;DHT22;7843;50.330;7.312;2023-11-22T04:05:06;5.00;99.90
15483;DHT22;7843;50.330;7.312;2023-11-22T04:07:33;5.00;99.90
15483;DHT22;7843;50.330;7.312;2023-11-22T04:10:00;5.00;99.90
15483;DHT22;7843;50.330;7.312;2023-11-22T04:12:27;5.10;99.90
15483;DHT22;7843;50.330;7.312;2023-11-22T04:14:53;5.10;99.90
15483;DHT22;7843;50.330;7.312;2023-11-22T04:17:20;5.10;99.90
15483;DHT22;7843;50.330;7.312;2023-11-22T04:19:47;5.10;99.90
15483;DHT22;7843;50.330;7.312;2023-11-22T04:22:14;5.10;99.90
15483;DHT22;7843;50.330;7.312;2023-11-22T04:24:41;5.00;99.90
15483;DHT22;7843;50.330;7.312;2023-11-22T04:27:07;5.10;99.90
15483;DHT22;7843;50.330;7.312;2023-11-22T04:29:34;5.10;99.90
15483;DHT22;7843;50.330;7.312;2023-11-22T04:32:01;5.10;99.90
15483;DHT22;7843;50.330;7.312;2023-11-22T04:34:28;5.00;99.90
15483;DHT22;7843;50.330;7.312;2023-11-22T04:36:55;5.00;99.90
15483;DHT22;7843;50.330;7.312;2023-11-22T04:39:21;4.90;99.90
15483;DHT22;7843;50.330;7.312;2023-11-22T04:41:48;4.90;99.90
15483;DHT22;7843;50.330;7.312;2023-11-22T04:44:15;4.90;99.90
15483;DHT22;7843;50.330;7.312;2023-11-22T04:46:41;4.90;99.90
15483;DHT22;7843;50.330;7.312;2023-11-22T04:49:08;4.80;99.90
15483;DHT22;7843;50.330;7.312;2023-11-22T04:51:35;4.80;99.90
15483;DHT22;7843;50.330;7.312;2023-11-22T04:54:01;4.80;99.90
15483;DHT22;7843;50.330;7.312;2023-11-22T04:56:29;4.80;99.90
15483;DHT22;7843;50.330;7.312;2023-11-22T04:58:56;4.70;99.90
15483;DHT22;7843;50.330;7.312;2023-11-22T05:01:23;4.70;99.90
15483;DHT22;7843;50.330;7.312;2023-11-22T05:03:50;4.70;99.90
15483;DHT22;7843;50.330;7.312;2023-11-22T05:06:17;4.60;99.90
15483;DHT22;7843;50.330;7.312;2023-11-22T05:08:44;4.60;99.90
15483;DHT22;7843;50.330;7.312;2023-11-22T05:11:10;4.50;99.90
15483;DHT22;7843;50.330;7.312;2023-11-22T05:13:37;4.40;99.90
15483;DHT22;7843;50.330;7.312;2023-11-22T05:16:04;4.40;99.90
15483;DHT22;7843;50.330;7.312;2023-11-22T05:18:31;4.30;99.90
15483;DHT22;7843;50.330;7.312;2023-11-22T05:20:57;4.20;99.90
15483;DHT22;7843;50.330;7.312;2023-11-22T05:23:24;4.10;99.90
15483;DHT22;7843;50.330;7.312;2023-11-22T05:25:51;4.10;99.90
15483;DHT22;7843;50.330;7.312;2023-11-22T05:28:18;4.10;99.90
15483;DHT22;7843;50.330;7.312;2023-11-22T05:30:45;4.20;99.90
15483;DHT22;7843;50.330;7.312;2023-11-22T05:33:12;4.20;99.90
15483;DHT22;7843;50.330;7.312;2023-11-22T05:35:39;4.20;99.90
15483;DHT22;7843;50.330;7.312;2023-11-22T05:38:06;4.20;99.90
15483;DHT22;7843;50.330;7.312;2023-11-22T05:40:33;4.20;99.90
15483;DHT22;7843;50.330;7.312;2023-11-22T05:43:00;4.20;99.90
15483;DHT22;7843;50.330;7.312;2023-11-22T05:45:27;4.10;99.90
15483;DHT22;7843;50.330;7.312;2023-11-22T05:47:53;4.00;99.90
15483;DHT22;7843;50.330;7.312;2023-11-22T05:50:20;3.90;99.90
15483;DHT22;7843;50.330;7.312;2023-11-22T05:52:50;3.70;99.90
15483;DHT22;7843;50.330;7.312;2023-11-22T05:55:17;3.60;99.90
15483;DHT22;7843;50.330;7.312;2023-11-22T05:57:44;3.50;99.90
15483;DHT22;7843;50.330;7.312;2023-11-22T06:00:11;3.40;99.90
15483;DHT22;7843;50.330;7.312;2023-11-22T06:02:40;3.30;99.90
15483;DHT22;7843;50.330;7.312;2023-11-22T06:05:07;3.30;99.90
15483;DHT22;7843;50.330;7.312;2023-11-22T06:07:34;3.20;99.90
15483;DHT22;7843;50.330;7.312;2023-11-22T06:10:01;3.10;99.90
15483;DHT22;7843;50.330;7.312;2023-11-22T06:12:29;3.10;99.90
15483;DHT22;7843;50.330;7.312;2023-11-22T06:14:56;3.00;99.90
15483;DHT22;7843;50.330;7.312;2023-11-22T06:17:22;2.90;99.90
15483;DHT22;7843;50.330;7.312;2023-11-22T06:19:49;2.90;99.90
15483;DHT22;7843;50.330;7.312;2023-11-22T06:22:16;2.80;99.90
15483;DHT22;7843;50.330;7.312;2023-11-22T06:24:43;2.80;99.90
15483;DHT22;7843;50.330;7.312;2023-11-22T06:27:10;2.70;99.90
15483;DHT22;7843;50.330;7.312;2023-11-22T06:29:37;2.70;99.90
15483;DHT22;7843;50.330;7.312;2023-11-22T06:32:04;2.60;99.90
15483;DHT22;7843;50.330;7.312;2023-11-22T06:34:32;2.50;99.90
15483;DHT22;7843;50.330;7.312;2023-11-22T06:36:59;2.50;99.90
15483;DHT22;7843;50.330;7.312;2023-11-22T06:39:26;2.50;99.90
15483;DHT22;7843;50.330;7.312;2023-11-22T06:41:53;2.40;99.90
15483;DHT22;7843;50.330;7.312;2023-11-22T06:44:20;2.40;99.90
15483;DHT22;7843;50.330;7.312;2023-11-22T06:46:47;2.30;99.90
15483;DHT22;7843;50.330;7.312;2023-11-22T06:49:14;2.30;99.90
15483;DHT22;7843;50.330;7.312;2023-11-22T06:51:41;2.20;99.90
15483;DHT22;7843;50.330;7.312;2023-11-22T06:54:07;2.20;99.90
15483;DHT22;7843;50.330;7.312;2023-11-22T06:56:34;2.10;99.90
15483;DHT22;7843;50.330;7.312;2023-11-22T06:59:01;2.10;99.90
15483;DHT22;7843;50.330;7.312;2023-11-22T07:01:27;2.00;99.90
15483;DHT22;7843;50.330;7.312;2023-11-22T07:03:54;2.00;99.90
15483;DHT22;7843;50.330;7.312;2023-11-22T07:06:21;1.90;99.90
15483;DHT22;7843;50.330;7.312;2023-11-22T07:08:49;1.90;99.90
15483;DHT22;7843;50.330;7.312;2023-11-22T07:11:23;1.90;99.90
15483;DHT22;7843;50.330;7.312;2023-11-22T07:13:50;1.90;99.90
15483;DHT22;7843;50.330;7.312;2023-11-22T07:16:18;1.90;99.90
15483;DHT22;7843;50.330;7.312;2023-11-22T07:18:45;1.80;99.90
15483;DHT22;7843;50.330;7.312;2023-11-22T07:21:12;1.80;99.90
15483;DHT22;7843;50.330;7.312;2023-11-22T07:23:39;1.80;99.90
15483;DHT22;7843;50.330;7.312;2023-11-22T07:26:05;1.80;99.90
15483;DHT22;7843;50.330;7.312;2023-11-22T07:28:32;1.70;99.90
15483;DHT22;7843;50.330;7.312;2023-11-22T07:31:02;1.70;99.90
15483;DHT22;7843;50.330;7.312;2023-11-22T07:33:32;1.70;99.90
15483;DHT22;7843;50.330;7.312;2023-11-22T07:35:59;1.60;99.90
15483;DHT22;7843;50.330;7.312;2023-11-22T07:38:26;1.60;99.90
15483;DHT22;7843;50.330;7.312;2023-11-22T07:40:52;1.60;99.90
15483;DHT22;7843;50.330;7.312;2023-11-22T07:43:19;1.60;99.90
15483;DHT22;7843;50.330;7.312;2023-11-22T07:45:46;1.60;99.90
15483;DHT22;7843;50.330;7.312;2023-11-22T07:48:15;1.60;99.90
15483;DHT22;7843;50.330;7.312;2023-11-22T07:50:41;1.70;99.90
15483;DHT22;7843;50.330;7.312;2023-11-22T07:53:13;1.70;99.90
15483;DHT22;7843;50.330;7.312;2023-11-22T07:55:41;1.80;99.90
15483;DHT22;7843;50.330;7.312;2023-11-22T07:58:08;1.90;99.90
15483;DHT22;7843;50.330;7.312;2023-11-22T08:00:35;2.00;99.90
15483;DHT22;7843;50.330;7.312;2023-11-22T08:03:03;2.10;99.90
15483;DHT22;7843;50.330;7.312;2023-11-22T08:05:30;2.20;99.90
15483;DHT22;7843;50.330;7.312;2023-11-22T08:08:02;2.20;99.90
15483;DHT22;7843;50.330;7.312;2023-11-22T08:10:34;2.30;99.60
15483;DHT22;7843;50.330;7.312;2023-11-22T08:13:01;2.40;98.60
15483;DHT22;7843;50.330;7.312;2023-11-22T08:15:30;2.50;98.50
15483;DHT22;7843;50.330;7.312;2023-11-22T08:17:59;2.50;97.80
15483;DHT22;7843;50.330;7.312;2023-11-22T08:20:27;2.50;98.50
15483;DHT22;7843;50.330;7.312;2023-11-22T08:22:53;2.60;97.20
15483;DHT22;7843;50.330;7.312;2023-11-22T08:25:20;2.60;96.60
15483;DHT22;7843;50.330;7.312;2023-11-22T08:27:47;2.70;96.30
15483;DHT22;7843;50.330;7.312;2023-11-22T08:30:14;2.70;97.50
15483;DHT22;7843;50.330;7.312;2023-11-22T08:32:45;2.80;96.60
15483;DHT22;7843;50.330;7.312;2023-11-22T08:35:17;2.80;97.80
15483;DHT22;7843;50.330;7.312;2023-11-22T08:37:44;2.80;98.40
15483;DHT22;7843;50.330;7.312;2023-11-22T08:40:11;2.80;98.50
15483;DHT22;7843;50.330;7.312;2023-11-22T08:42:38;2.80;99.20
15483;DHT22;7843;50.330;7.312;2023-11-22T08:45:05;2.80;98.50
15483;DHT22;7843;50.330;7.312;2023-11-22T08:47:32;2.90;98.90
15483;DHT22;7843;50.330;7.312;2023-11-22T08:49:59;2.90;98.80
15483;DHT22;7843;50.330;7.312;2023-11-22T08:52:26;3.00;98.40
15483;DHT22;7843;50.330;7.312;2023-11-22T08:54:55;3.00;98.70
15483;DHT22;7843;50.330;7.312;2023-11-22T08:57:22;3.10;99.60
15483;DHT22;7843;50.330;7.312;2023-11-22T08:59:49;3.10;99.60
15483;DHT22;7843;50.330;7.312;2023-11-22T09:02:16;3.10;99.40
15483;DHT22;7843;50.330;7.312;2023-11-22T09:04:44;3.10;99.50
15483;DHT22;7843;50.330;7.312;2023-11-22T09:07:10;3.20;98.60
15483;DHT22;7843;50.330;7.312;2023-11-22T09:09:37;3.20;98.90
15483;DHT22;7843;50.330;7.312;2023-11-22T09:12:04;3.10;98.10
15483;DHT22;7843;50.330;7.312;2023-11-22T09:14:40;3.20;97.90
15483;DHT22;7843;50.330;7.312;2023-11-22T09:17:08;3.20;98.50
15483;DHT22;7843;50.330;7.312;2023-11-22T09:19:35;3.30;97.90
15483;DHT22;7843;50.330;7.312;2023-11-22T09:22:04;3.30;96.70
15483;DHT22;7843;50.330;7.312;2023-11-22T09:24:32;3.30;95.20
15483;DHT22;7843;50.330;7.312;2023-11-22T09:27:00;3.30;94.80
15483;DHT22;7843;50.330;7.312;2023-11-22T09:29:27;3.30;95.90
15483;DHT22;7843;50.330;7.312;2023-11-22T09:31:54;3.30;96.40
15483;DHT22;7843;50.330;7.312;2023-11-22T09:34:21;3.30;95.30
15483;DHT22;7843;50.330;7.312;2023-11-22T09:36:48;3.40;94.20
15483;DHT22;7843;50.330;7.312;2023-11-22T09:39:14;3.40;94.00
15483;DHT22;7843;50.330;7.312;2023-11-22T09:41:41;3.40;94.20
15483;DHT22;7843;50.330;7.312;2023-11-22T09:44:08;3.40;92.90
15483;DHT22;7843;50.330;7.312;2023-11-22T09:46:37;3.40;92.50
15483;DHT22;7843;50.330;7.312;2023-11-22T09:49:08;3.40;92.90
15483;DHT22;7843;50.330;7.312;2023-11-22T09:51:41;3.50;93.00
15483;DHT22;7843;50.330;7.312;2023-11-22T09:54:09;3.50;92.90
15483;DHT22;7843;50.330;7.312;2023-11-22T09:56:40;3.60;91.50
15483;DHT22;7843;50.330;7.312;2023-11-22T09:59:08;3.60;92.50
15483;DHT22;7843;50.330;7.312;2023-11-22T10:01:38;3.60;92.40
15483;DHT22;7843;50.330;7.312;2023-11-22T10:04:05;3.60;92.30
15483;DHT22;7843;50.330;7.312;2023-11-22T10:06:32;3.70;92.20
15483;DHT22;7843;50.330;7.312;2023-11-22T10:09:02;3.70;92.30
15483;DHT22;7843;50.330;7.312;2023-11-22T10:11:35;3.80;91.70
15483;DHT22;7843;50.330;7.312;2023-11-22T10:14:05;3.90;92.10
15483;DHT22;7843;50.330;7.312;2023-11-22T10:16:31;4.10;92.00
15483;DHT22;7843;50.330;7.312;2023-11-22T10:18:58;4.20;91.60
15483;DHT22;7843;50.330;7.312;2023-11-22T10:21:29;4.30;91.80
15483;DHT22;7843;50.330;7.312;2023-11-22T10:24:03;4.50;91.30
15483;DHT22;7843;50.330;7.312;2023-11-22T10:26:30;4.50;90.90
15483;DHT22;7843;50.330;7.312;2023-11-22T10:28:57;4.60;91.00
15483;DHT22;7843;50.330;7.312;2023-11-22T10:31:25;4.60;91.10
15483;DHT22;7843;50.330;7.312;2023-11-22T10:33:53;4.50;91.00
15483;DHT22;7843;50.330;7.312;2023-11-22T10:36:22;4.50;91.10
15483;DHT22;7843;50.330;7.312;2023-11-22T10:38:49;4.50;90.90
15483;DHT22;7843;50.330;7.312;2023-11-22T10:41:20;4.50;91.00
15483;DHT22;7843;50.330;7.312;2023-11-22T10:43:47;4.40;91.70
15483;DHT22;7843;50.330;7.312;2023-11-22T10:46:15;4.40;92.40
15483;DHT22;7843;50.330;7.312;2023-11-22T10:48:43;4.50;91.30
15483;DHT22;7843;50.330;7.312;2023-11-22T10:51:13;4.50;91.30
15483;DHT22;7843;50.330;7.312;2023-11-22T10:53:47;4.60;91.30
15483;DHT22;7843;50.330;7.312;2023-11-22T10:56:15;4.60;90.30
15483;DHT22;7843;50.330;7.312;2023-11-22T10:58:48;4.70;90.70
15483;DHT22;7843;50.330;7.312;2023-11-22T11:01:17;4.80;90.20
15483;DHT22;7843;50.330;7.312;2023-11-22T11:06:34;4.90;89.70
15483;DHT22;7843;50.330;7.312;2023-11-22T11:09:04;4.90;88.90
15483;DHT22;7843;50.330;7.312;2023-11-22T11:11:34;5.00;89.30
15483;DHT22;7843;50.330;7.312;2023-11-22T11:14:05;5.10;89.10
15483;DHT22;7843;50.330;7.312;2023-11-22T11:16:36;5.10;89.20
15483;DHT22;7843;50.330;7.312;2023-11-22T11:19:04;5.20;88.70
15483;DHT22;7843;50.330;7.312;2023-11-22T11:21:33;5.20;88.50
15483;DHT22;7843;50.330;7.312;2023-11-22T11:24:00;5.30;89.00
15483;DHT22;7843;50.330;7.312;2023-11-22T11:26:32;5.40;89.00
15483;DHT22;7843;50.330;7.312;2023-11-22T11:29:01;5.50;88.30
15483;DHT22;7843;50.330;7.312;2023-11-22T11:31:33;5.50;87.90
15483;DHT22;7843;50.330;7.312;2023-11-22T11:34:06;5.50;87.70
15483;DHT22;7843;50.330;7.312;2023-11-22T11:36:37;5.60;87.80
15483;DHT22;7843;50.330;7.312;2023-11-22T11:39:08;5.70;87.70
15483;DHT22;7843;50.330;7.312;2023-11-22T11:41:41;5.70;87.20
15483;DHT22;7843;50.330;7.312;2023-11-22T11:44:08;5.80;86.80
15483;DHT22;7843;50.330;7.312;2023-11-22T11:46:38;5.80;86.60
15483;DHT22;7843;50.330;7.312;2023-11-22T11:49:10;5.80;86.90
15483;DHT22;7843;50.330;7.312;2023-11-22T11:51:38;5.80;86.70
15483;DHT22;7843;50.330;7.312;2023-11-22T11:54:05;5.80;85.90
15483;DHT22;7843;50.330;7.312;2023-11-22T11:56:33;5.80;86.30
15483;DHT22;7843;50.330;7.312;2023-11-22T11:59:01;5.80;85.70
15483;DHT22;7843;50.330;7.312;2023-11-22T12:01:29;5.70;85.10
15483;DHT22;7843;50.330;7.312;2023-11-22T12:03:56;5.70;85.50
15483;DHT22;7843;50.330;7.312;2023-11-22T12:06:23;5.70;85.60
15483;DHT22;7843;50.330;7.312;2023-11-22T12:08:50;5.70;85.40
15483;DHT22;7843;50.330;7.312;2023-11-22T12:11:17;5.70;84.60
15483;DHT22;7843;50.330;7.312;2023-11-22T12:13:44;5.80;84.90
15483;DHT22;7843;50.330;7.312;2023-11-22T12:16:18;5.80;84.70
15483;DHT22;7843;50.330;7.312;2023-11-22T12:18:49;5.80;84.70
15483;DHT22;7843;50.330;7.312;2023-11-22T12:21:17;5.90;82.20
15483;DHT22;7843;50.330;7.312;2023-11-22T12:23:46;5.90;82.50
15483;DHT22;7843;50.330;7.312;2023-11-22T12:26:16;6.00;82.80
15483;DHT22;7843;50.330;7.312;2023-11-22T12:28:48;6.00;80.90
15483;DHT22;7843;50.330;7.312;2023-11-22T12:31:19;5.90;80.40
15483;DHT22;7843;50.330;7.312;2023-11-22T12:33:45;6.00;80.80
15483;DHT22;7843;50.330;7.312;2023-11-22T12:36:15;5.90;80.10
15483;DHT22;7843;50.330;7.312;2023-11-22T12:38:43;6.00;81.20
15483;DHT22;7843;50.330;7.312;2023-11-22T12:41:10;6.00;82.00
15483;DHT22;7843;50.330;7.312;2023-11-22T12:43:37;6.10;82.50
15483;DHT22;7843;50.330;7.312;2023-11-22T12:46:08;6.20;80.20
15483;DHT22;7843;50.330;7.312;2023-11-22T12:48:42;6.20;80.80
15483;DHT22;7843;50.330;7.312;2023-11-22T12:51:16;6.20;81.20
15483;DHT22;7843;50.330;7.312;2023-11-22T12:53:53;6.20;80.60
15483;DHT22;7843;50.330;7.312;2023-11-22T12:56:20;6.10;80.00
15483;DHT22;7843;50.330;7.312;2023-11-22T12:58:46;6.00;79.90
15483;DHT22;7843;50.330;7.312;2023-11-22T13:01:14;5.90;80.30
15483;DHT22;7843;50.330;7.312;2023-11-22T13:03:41;5.80;81.80
15483;DHT22;7843;50.330;7.312;2023-11-22T13:06:08;6.00;81.80
15483;DHT22;7843;50.330;7.312;2023-11-22T13:08:35;6.50;80.00
15483;DHT22;7843;50.330;7.312;2023-11-22T13:11:02;7.00;79.40
15483;DHT22;7843;50.330;7.312;2023-11-22T13:13:29;7.40;77.10
15483;DHT22;7843;50.330;7.312;2023-11-22T13:15:57;7.30;75.80
15483;DHT22;7843;50.330;7.312;2023-11-22T13:18:24;7.00;76.70
15483;DHT22;7843;50.330;7.312;2023-11-22T13:20:52;6.60;77.70
15483;DHT22;7843;50.330;7.312;2023-11-22T13:23:19;6.30;78.50
15483;DHT22;7843;50.330;7.312;2023-11-22T13:25:46;6.30;78.70
15483;DHT22;7843;50.330;7.312;2023-11-22T13:28:13;6.20;78.70
15483;DHT22;7843;50.330;7.312;2023-11-22T13:30:40;6.00;78.20
15483;DHT22;7843;50.330;7.312;2023-11-22T13:33:07;5.80;80.00
15483;DHT22;7843;50.330;7.312;2023-11-22T13:35:34;5.60;82.20
15483;DHT22;7843;50.330;7.312;2023-11-22T13:38:04;5.40;82.60
15483;DHT22;7843;50.330;7.312;2023-11-22T13:40:37;5.30;83.60
15483;DHT22;7843;50.330;7.312;2023-11-22T13:43:06;5.20;83.60
15483;DHT22;7843;50.330;7.312;2023-11-22T13:45:36;5.20;83.90
15483;DHT22;7843;50.330;7.312;2023-11-22T13:48:06;5.10;85.00
15483;DHT22;7843;50.330;7.312;2023-11-22T13:50:36;5.10;83.40
15483;DHT22;7843;50.330;7.312;2023-11-22T13:53:03;5.10;84.80
15483;DHT22;7843;50.330;7.312;2023-11-22T13:55:31;5.10;86.60
15483;DHT22;7843;50.330;7.312;2023-11-22T13:57:59;5.00;84.40
15483;DHT22;7843;50.330;7.312;2023-11-22T14:00:27;5.00;86.10
15483;DHT22;7843;50.330;7.312;2023-11-22T14:02:59;5.00;85.90
15483;DHT22;7843;50.330;7.312;2023-11-22T14:05:34;4.90;87.20
15483;DHT22;7843;50.330;7.312;2023-11-22T14:08:01;4.80;85.70
15483;DHT22;7843;50.330;7.312;2023-11-22T14:10:28;4.80;86.70
15483;DHT22;7843;50.330;7.312;2023-11-22T14:12:55;4.80;84.10
15483;DHT22;7843;50.330;7.312;2023-11-22T14:15:27;4.80;84.80
15483;DHT22;7843;50.330;7.312;2023-11-22T14:17:58;4.80;85.30
15483;DHT22;7843;50.330;7.312;2023-11-22T14:20:25;4.70;85.50
15483;DHT22;7843;50.330;7.312;2023-11-22T14:22:52;4.70;88.20
15483;DHT22;7843;50.330;7.312;2023-11-22T14:25:19;4.70;89.00
15483;DHT22;7843;50.330;7.312;2023-11-22T14:27:47;4.60;90.70
15483;DHT22;7843;50.330;7.312;2023-11-22T14:30:19;4.50;90.20
15483;DHT22;7843;50.330;7.312;2023-11-22T14:32:47;4.50;90.40
15483;DHT22;7843;50.330;7.312;2023-11-22T14:35:14;4.50;90.80
15483;DHT22;7843;50.330;7.312;2023-11-22T14:37:41;4.40;90.00
15483;DHT22;7843;50.330;7.312;2023-11-22T14:40:08;4.40;90.30
15483;DHT22;7843;50.330;7.312;2023-11-22T14:42:41;4.40;91.40
15483;DHT22;7843;50.330;7.312;2023-11-22T14:45:09;4.40;93.30
15483;DHT22;7843;50.330;7.312;2023-11-22T14:47:36;4.40;93.60
15483;DHT22;7843;50.330;7.312;2023-11-22T14:50:03;4.40;91.50
15483;DHT22;7843;50.330;7.312;2023-11-22T14:52:33;4.40;91.60
15483;DHT22;7843;50.330;7.312;2023-11-22T14:54:59;4.40;92.20
15483;DHT22;7843;50.330;7.312;2023-11-22T14:57:27;4.40;91.80
15483;DHT22;7843;50.330;7.312;2023-11-22T14:59:53;4.30;90.10
15483;DHT22;7843;50.330;7.312;2023-11-22T15:02:20;4.30;91.50
15483;DHT22;7843;50.330;7.312;2023-11-22T15:04:48;4.20;90.90
15483;DHT22;7843;50.330;7.312;2023-11-22T15:07:14;4.20;91.40
15483;DHT22;7843;50.330;7.312;2023-11-22T15:09:41;4.10;91.30
15483;DHT22;7843;50.330;7.312;2023-11-22T15:12:08;4.10;92.00
15483;DHT22;7843;50.330;7.312;2023-11-22T15:14:35;4.00;91.70
15483;DHT22;7843;50.330;7.312;2023-11-22T15:17:03;3.90;92.50
15483;DHT22;7843;50.330;7.312;2023-11-22T15:19:32;3.80;93.10
15483;DHT22;7843;50.330;7.312;2023-11-22T15:22:00;3.70;94.60
15483;DHT22;7843;50.330;7.312;2023-11-22T15:24:26;3.60;95.60
15483;DHT22;7843;50.330;7.312;2023-11-22T15:26:53;3.50;95.30
15483;DHT22;7843;50.330;7.312;2023-11-22T15:29:20;3.40;93.20
15483;DHT22;7843;50.330;7.312;2023-11-22T15:31:46;3.30;93.00
15483;DHT22;7843;50.330;7.312;2023-11-22T15:34:13;3.20;92.60
15483;DHT22;7843;50.330;7.312;2023-11-22T15:36:40;3.10;93.60
15483;DHT22;7843;50.330;7.312;2023-11-22T15:39:07;3.10;94.90
15483;DHT22;7843;50.330;7.312;2023-11-22T15:41:41;3.10;95.10
15483;DHT22;7843;50.330;7.312;2023-11-22T15:44:10;3.10;95.80
15483;DHT22;7843;50.330;7.312;2023-11-22T15:46:39;3.10;95.30
15483;DHT22;7843;50.330;7.312;2023-11-22T15:49:08;3.10;94.90
15483;DHT22;7843;50.330;7.312;2023-11-22T15:51:35;3.10;95.80
15483;DHT22;7843;50.330;7.312;2023-11-22T15:54:02;3.10;97.50
15483;DHT22;7843;50.330;7.312;2023-11-22T15:56:29;3.10;97.20
15483;DHT22;7843;50.330;7.312;2023-11-22T15:58:57;3.10;96.80
15483;DHT22;7843;50.330;7.312;2023-11-22T16:01:27;3.10;97.10
15483;DHT22;7843;50.330;7.312;2023-11-22T16:03:54;3.10;98.50
15483;DHT22;7843;50.330;7.312;2023-11-22T16:06:23;3.20;99.60
15483;DHT22;7843;50.330;7.312;2023-11-22T16:08:50;3.20;98.80